Airfield :
LOGIN :

Register | Disclaimer

   EN    FR    IT 

 










Legend :    VFR   Marginal VFR   IFR   Intensive IFR   Very Intensive IFR
Visi :
Ceiling :
>= 8 km
>= 3000ft
5 to 8 km
1000 to 3000 ft
1500m to 5 km
500 to 1000 ft
800 to 1500m
200 to 500 ft
< 800m
< 200 ft
Symbols :   Thunderstorms  Fog  Heavy snow  Heavy precipitations  Wind > 20 kt
SIGMETs :     Misc.  Thunderstorms  Icing  Turbulence  Mountain Waves  Volcanic Ashes







- Airport Elevation : 20 ft


EBFN - Koksijde

CURRENT METAR :
  • 240825Z 33008KT 9999 FEW250 15/11 Q1016 BLU BLU

EXPIRED METARs :
  • 240755Z 29009KT 9999 FEW010 SCT250 15/11 Q1016 BLU BLU
  • 240725Z 29011KT 8000 BR FEW009 SCT250 14/11 Q1016 BLU BLU
  • 240722Z 29010KT 8000 BR FEW009 SCT250 14/11 Q1016 BLU BLU
  • 240655Z 28009KT 5000 BR FEW010 SCT250 14/11 Q1016 WHT BLU
  • 240653Z 28008KT 5000 BR FEW010 SCT250 13/10 Q1016 WHT BLU
  • 240625Z 24005KT 4300 BR FEW130 12/09 Q1016 GRN WHT BECMG BLU
  • 240555Z 24005KT 3900 BR FEW130 11/09 Q1016 GRN WHT BECMG BLU
  • 240553Z 24005KT 3900 BR FEW130 11/09 Q1016 GRN WHT BECMG BLU

TAF TAF EBFN
Valid from the 24 at 07:00 until the 24 at 16:00 UTC


240541Z 2407/2416 27007KT 6000 SCT070 SCT200
BECMG 2207/2209 9999 FEW035 BKN070
BECMG 2409/2411 36006KT FEW040 SCT080
No reported NOTAMs for that airfield.



MET'MAP, your aeronautical weather chart ! - Copyright ORBIFLY December 2007 - Disclaimer

ORBIFLY MET'MAP TEAM :

Programming & Development : Alexandra Zaïnal
Concept & Development : Baudouin d'Aumeries
Co-Development & Prog : Marc-Olivier Méhu
Technical & hardware support : Manuel Goepfert

Contact : metmap@orbifly.com




SOURCES & CREDITS :

   NOAA